Terminal Aerodrome Forecast
Issued by NWS Missoula, MT

Home | Current Version | Previous Version | Text Only | Print | Product List | Glossary On
Versions: 1 2 3 4 5 6 7 8 9 10 11 12 13 14 15 16 17 18
076
FTUS45 KMSO 172339
TAFGPI
TAF
KGPI 172339Z 1800/1824 24020G30KT P6SM SCT080 BKN200
     FM180200 22013G25KT P6SM VCSH BKN080 OVC200
     FM180400 19011KT P6SM BKN150=

USA.gov is the U.S. government's official web portal to all federal, state and local government web resources and services.